sensor_id;sensor_type;location;lat;lon;timestamp;temperature;humidity
7666;DHT22;3875;46.562;4.898;2023-07-31T00:01:21;16.70;78.90
7666;DHT22;3875;46.562;4.898;2023-07-31T00:03:47;16.70;78.90
7666;DHT22;3875;46.562;4.898;2023-07-31T00:06:13;16.80;78.80
7666;DHT22;3875;46.562;4.898;2023-07-31T00:08:38;16.90;78.60
7666;DHT22;3875;46.562;4.898;2023-07-31T00:11:04;16.90;78.40
7666;DHT22;3875;46.562;4.898;2023-07-31T00:13:30;17.00;78.20
7666;DHT22;3875;46.562;4.898;2023-07-31T00:15:55;17.10;78.20
7666;DHT22;3875;46.562;4.898;2023-07-31T00:18:21;17.20;78.00
7666;DHT22;3875;46.562;4.898;2023-07-31T00:20:47;17.30;77.70
7666;DHT22;3875;46.562;4.898;2023-07-31T00:23:12;17.30;77.40
7666;DHT22;3875;46.562;4.898;2023-07-31T00:25:38;17.30;77.50
7666;DHT22;3875;46.562;4.898;2023-07-31T00:28:04;17.30;77.90
7666;DHT22;3875;46.562;4.898;2023-07-31T00:30:29;17.20;77.70
7666;DHT22;3875;46.562;4.898;2023-07-31T00:32:55;17.20;78.00
7666;DHT22;3875;46.562;4.898;2023-07-31T00:35:21;17.20;78.30
7666;DHT22;3875;46.562;4.898;2023-07-31T00:37:46;17.20;78.10
7666;DHT22;3875;46.562;4.898;2023-07-31T00:40:12;17.10;78.00
7666;DHT22;3875;46.562;4.898;2023-07-31T00:42:39;17.00;78.10
7666;DHT22;3875;46.562;4.898;2023-07-31T00:45:05;16.70;78.50
7666;DHT22;3875;46.562;4.898;2023-07-31T00:47:31;16.40;79.30
7666;DHT22;3875;46.562;4.898;2023-07-31T00:49:57;16.20;80.10
7666;DHT22;3875;46.562;4.898;2023-07-31T00:52:22;16.10;80.60
7666;DHT22;3875;46.562;4.898;2023-07-31T00:54:49;16.10;80.50
7666;DHT22;3875;46.562;4.898;2023-07-31T00:57:15;16.30;80.00
7666;DHT22;3875;46.562;4.898;2023-07-31T00:59:41;16.30;79.70
7666;DHT22;3875;46.562;4.898;2023-07-31T01:02:06;16.50;79.20
7666;DHT22;3875;46.562;4.898;2023-07-31T01:04:32;16.60;79.10
7666;DHT22;3875;46.562;4.898;2023-07-31T01:10:04;16.80;78.80
7666;DHT22;3875;46.562;4.898;2023-07-31T01:12:34;16.90;78.60
7666;DHT22;3875;46.562;4.898;2023-07-31T01:15:04;16.90;78.60
7666;DHT22;3875;46.562;4.898;2023-07-31T01:17:30;17.00;78.40
7666;DHT22;3875;46.562;4.898;2023-07-31T01:20:03;17.00;78.50
7666;DHT22;3875;46.562;4.898;2023-07-31T01:23:01;16.90;78.70
7666;DHT22;3875;46.562;4.898;2023-07-31T01:28:25;16.90;79.20
7666;DHT22;3875;46.562;4.898;2023-07-31T01:30:55;16.80;79.20
7666;DHT22;3875;46.562;4.898;2023-07-31T01:33:24;16.80;79.30
7666;DHT22;3875;46.562;4.898;2023-07-31T01:35:50;16.70;79.40
7666;DHT22;3875;46.562;4.898;2023-07-31T01:38:20;16.70;79.40
7666;DHT22;3875;46.562;4.898;2023-07-31T01:40:51;16.70;79.70
7666;DHT22;3875;46.562;4.898;2023-07-31T01:43:17;16.70;79.60
7666;DHT22;3875;46.562;4.898;2023-07-31T01:45:43;16.70;79.50
7666;DHT22;3875;46.562;4.898;2023-07-31T01:48:08;16.70;79.50
7666;DHT22;3875;46.562;4.898;2023-07-31T01:50:34;16.70;79.60
7666;DHT22;3875;46.562;4.898;2023-07-31T01:53:00;16.70;79.60
7666;DHT22;3875;46.562;4.898;2023-07-31T01:55:25;16.70;79.60
7666;DHT22;3875;46.562;4.898;2023-07-31T01:57:51;16.70;79.30
7666;DHT22;3875;46.562;4.898;2023-07-31T02:00:18;16.70;79.40
7666;DHT22;3875;46.562;4.898;2023-07-31T02:02:43;16.70;79.60
7666;DHT22;3875;46.562;4.898;2023-07-31T02:05:09;16.70;79.50
7666;DHT22;3875;46.562;4.898;2023-07-31T02:07:35;16.60;79.50
7666;DHT22;3875;46.562;4.898;2023-07-31T02:10:00;16.60;79.70
7666;DHT22;3875;46.562;4.898;2023-07-31T02:12:26;16.60;79.80
7666;DHT22;3875;46.562;4.898;2023-07-31T02:14:52;16.60;79.90
7666;DHT22;3875;46.562;4.898;2023-07-31T02:17:17;16.60;80.00
7666;DHT22;3875;46.562;4.898;2023-07-31T02:19:43;16.60;80.00
7666;DHT22;3875;46.562;4.898;2023-07-31T02:22:08;16.60;80.20
7666;DHT22;3875;46.562;4.898;2023-07-31T02:24:34;16.60;80.20
7666;DHT22;3875;46.562;4.898;2023-07-31T02:27:00;16.60;80.20
7666;DHT22;3875;46.562;4.898;2023-07-31T02:29:25;16.70;80.20
7666;DHT22;3875;46.562;4.898;2023-07-31T02:31:51;16.60;80.20
7666;DHT22;3875;46.562;4.898;2023-07-31T02:34:17;16.60;80.20
7666;DHT22;3875;46.562;4.898;2023-07-31T02:36:42;16.60;80.20
7666;DHT22;3875;46.562;4.898;2023-07-31T02:39:08;16.50;80.20
7666;DHT22;3875;46.562;4.898;2023-07-31T02:41:33;16.50;80.70
7666;DHT22;3875;46.562;4.898;2023-07-31T02:43:59;16.50;80.50
7666;DHT22;3875;46.562;4.898;2023-07-31T02:46:24;16.40;80.70
7666;DHT22;3875;46.562;4.898;2023-07-31T02:48:50;16.40;80.90
7666;DHT22;3875;46.562;4.898;2023-07-31T02:51:16;16.30;81.00
7666;DHT22;3875;46.562;4.898;2023-07-31T02:53:42;16.30;81.20
7666;DHT22;3875;46.562;4.898;2023-07-31T02:56:08;16.40;81.10
7666;DHT22;3875;46.562;4.898;2023-07-31T02:58:33;16.40;81.00
7666;DHT22;3875;46.562;4.898;2023-07-31T03:00:59;16.50;80.90
7666;DHT22;3875;46.562;4.898;2023-07-31T03:03:25;16.40;80.90
7666;DHT22;3875;46.562;4.898;2023-07-31T03:05:50;16.50;80.90
7666;DHT22;3875;46.562;4.898;2023-07-31T03:08:16;16.40;81.00
7666;DHT22;3875;46.562;4.898;2023-07-31T03:10:41;16.30;81.20
7666;DHT22;3875;46.562;4.898;2023-07-31T03:13:07;16.30;81.20
7666;DHT22;3875;46.562;4.898;2023-07-31T03:15:33;16.20;81.40
7666;DHT22;3875;46.562;4.898;2023-07-31T03:17:58;16.20;81.40
7666;DHT22;3875;46.562;4.898;2023-07-31T03:20:24;16.20;81.90
7666;DHT22;3875;46.562;4.898;2023-07-31T03:22:50;16.20;81.80
7666;DHT22;3875;46.562;4.898;2023-07-31T03:25:15;16.20;81.90
7666;DHT22;3875;46.562;4.898;2023-07-31T03:27:41;16.10;82.10
7666;DHT22;3875;46.562;4.898;2023-07-31T03:30:07;16.20;82.10
7666;DHT22;3875;46.562;4.898;2023-07-31T03:32:33;16.20;82.00
7666;DHT22;3875;46.562;4.898;2023-07-31T03:34:58;16.20;82.00
7666;DHT22;3875;46.562;4.898;2023-07-31T03:37:24;16.10;82.50
7666;DHT22;3875;46.562;4.898;2023-07-31T03:42:16;16.10;82.70
7666;DHT22;3875;46.562;4.898;2023-07-31T03:44:42;16.10;83.00
7666;DHT22;3875;46.562;4.898;2023-07-31T03:47:08;16.10;83.30
7666;DHT22;3875;46.562;4.898;2023-07-31T03:49:33;16.10;83.50
7666;DHT22;3875;46.562;4.898;2023-07-31T03:51:59;16.00;83.80
7666;DHT22;3875;46.562;4.898;2023-07-31T03:54:24;16.10;83.70
7666;DHT22;3875;46.562;4.898;2023-07-31T03:56:50;16.10;84.00
7666;DHT22;3875;46.562;4.898;2023-07-31T03:59:16;16.00;83.80
7666;DHT22;3875;46.562;4.898;2023-07-31T04:01:41;16.00;83.80
7666;DHT22;3875;46.562;4.898;2023-07-31T04:04:07;16.00;83.70
7666;DHT22;3875;46.562;4.898;2023-07-31T04:06:32;16.00;83.90
7666;DHT22;3875;46.562;4.898;2023-07-31T04:08:58;16.00;84.00
7666;DHT22;3875;46.562;4.898;2023-07-31T04:11:24;16.00;83.90
7666;DHT22;3875;46.562;4.898;2023-07-31T04:13:49;16.00;83.90
7666;DHT22;3875;46.562;4.898;2023-07-31T04:16:15;16.00;84.00
7666;DHT22;3875;46.562;4.898;2023-07-31T04:18:41;16.00;84.10
7666;DHT22;3875;46.562;4.898;2023-07-31T04:21:06;15.90;84.10
7666;DHT22;3875;46.562;4.898;2023-07-31T04:23:32;15.90;84.10
7666;DHT22;3875;46.562;4.898;2023-07-31T04:25:57;15.90;84.20
7666;DHT22;3875;46.562;4.898;2023-07-31T04:28:23;15.80;84.00
7666;DHT22;3875;46.562;4.898;2023-07-31T04:30:51;15.80;84.30
7666;DHT22;3875;46.562;4.898;2023-07-31T04:33:16;15.80;84.30
7666;DHT22;3875;46.562;4.898;2023-07-31T04:35:50;15.80;84.30
7666;DHT22;3875;46.562;4.898;2023-07-31T04:38:18;15.80;84.50
7666;DHT22;3875;46.562;4.898;2023-07-31T04:40:43;15.80;84.50
7666;DHT22;3875;46.562;4.898;2023-07-31T04:43:09;15.80;84.70
7666;DHT22;3875;46.562;4.898;2023-07-31T04:45:35;15.80;84.60
7666;DHT22;3875;46.562;4.898;2023-07-31T04:48:00;15.80;84.70
7666;DHT22;3875;46.562;4.898;2023-07-31T04:50:26;15.70;84.70
7666;DHT22;3875;46.562;4.898;2023-07-31T04:52:52;15.70;84.80
7666;DHT22;3875;46.562;4.898;2023-07-31T04:55:17;15.80;84.90
7666;DHT22;3875;46.562;4.898;2023-07-31T04:57:43;15.80;85.00
7666;DHT22;3875;46.562;4.898;2023-07-31T05:00:09;15.80;85.20
7666;DHT22;3875;46.562;4.898;2023-07-31T05:02:35;15.80;85.00
7666;DHT22;3875;46.562;4.898;2023-07-31T05:05:00;15.90;85.00
7666;DHT22;3875;46.562;4.898;2023-07-31T05:07:26;15.90;84.80
7666;DHT22;3875;46.562;4.898;2023-07-31T05:09:51;16.00;84.80
7666;DHT22;3875;46.562;4.898;2023-07-31T05:12:17;16.00;84.80
7666;DHT22;3875;46.562;4.898;2023-07-31T05:14:43;16.00;84.70
7666;DHT22;3875;46.562;4.898;2023-07-31T05:17:08;16.00;84.50
7666;DHT22;3875;46.562;4.898;2023-07-31T05:19:34;15.90;84.70
7666;DHT22;3875;46.562;4.898;2023-07-31T05:21:59;16.00;84.60
7666;DHT22;3875;46.562;4.898;2023-07-31T05:24:25;16.00;84.70
7666;DHT22;3875;46.562;4.898;2023-07-31T05:26:51;15.90;84.70
7666;DHT22;3875;46.562;4.898;2023-07-31T05:29:16;15.90;84.90
7666;DHT22;3875;46.562;4.898;2023-07-31T05:31:42;15.90;85.00
7666;DHT22;3875;46.562;4.898;2023-07-31T05:34:07;16.00;84.80
7666;DHT22;3875;46.562;4.898;2023-07-31T05:36:33;16.00;84.90
7666;DHT22;3875;46.562;4.898;2023-07-31T05:38:58;16.00;85.10
7666;DHT22;3875;46.562;4.898;2023-07-31T05:41:24;16.10;85.00
7666;DHT22;3875;46.562;4.898;2023-07-31T05:43:50;16.10;85.00
7666;DHT22;3875;46.562;4.898;2023-07-31T05:46:16;16.10;85.10
7666;DHT22;3875;46.562;4.898;2023-07-31T05:48:42;16.30;85.20
7666;DHT22;3875;46.562;4.898;2023-07-31T05:51:08;16.50;85.20
7666;DHT22;3875;46.562;4.898;2023-07-31T05:53:33;16.80;85.10
7666;DHT22;3875;46.562;4.898;2023-07-31T05:55:59;17.00;84.60
7666;DHT22;3875;46.562;4.898;2023-07-31T05:58:24;17.20;84.30
7666;DHT22;3875;46.562;4.898;2023-07-31T06:00:50;17.40;84.30
7666;DHT22;3875;46.562;4.898;2023-07-31T06:03:16;17.60;83.80
7666;DHT22;3875;46.562;4.898;2023-07-31T06:05:41;17.80;83.80
7666;DHT22;3875;46.562;4.898;2023-07-31T06:08:07;18.10;83.10
7666;DHT22;3875;46.562;4.898;2023-07-31T06:10:32;18.30;82.90
7666;DHT22;3875;46.562;4.898;2023-07-31T06:12:58;18.50;82.30
7666;DHT22;3875;46.562;4.898;2023-07-31T06:15:24;18.60;82.00
7666;DHT22;3875;46.562;4.898;2023-07-31T06:17:49;18.80;82.00
7666;DHT22;3875;46.562;4.898;2023-07-31T06:20:15;19.00;81.70
7666;DHT22;3875;46.562;4.898;2023-07-31T06:22:41;19.20;81.10
7666;DHT22;3875;46.562;4.898;2023-07-31T06:25:06;19.40;80.80
7666;DHT22;3875;46.562;4.898;2023-07-31T06:27:32;19.50;80.70
7666;DHT22;3875;46.562;4.898;2023-07-31T06:29:58;19.70;80.30
7666;DHT22;3875;46.562;4.898;2023-07-31T06:32:23;19.70;79.50
7666;DHT22;3875;46.562;4.898;2023-07-31T06:34:49;19.50;78.40
7666;DHT22;3875;46.562;4.898;2023-07-31T06:37:15;19.70;78.50
7666;DHT22;3875;46.562;4.898;2023-07-31T06:39:40;19.80;77.60
7666;DHT22;3875;46.562;4.898;2023-07-31T06:42:06;19.80;77.10
7666;DHT22;3875;46.562;4.898;2023-07-31T06:44:32;20.00;77.40
7666;DHT22;3875;46.562;4.898;2023-07-31T06:46:57;20.20;76.60
7666;DHT22;3875;46.562;4.898;2023-07-31T06:49:23;20.20;76.20
7666;DHT22;3875;46.562;4.898;2023-07-31T06:51:49;20.40;76.20
7666;DHT22;3875;46.562;4.898;2023-07-31T06:54:14;20.40;74.90
7666;DHT22;3875;46.562;4.898;2023-07-31T06:56:40;20.60;75.50
7666;DHT22;3875;46.562;4.898;2023-07-31T06:59:05;20.60;74.30
7666;DHT22;3875;46.562;4.898;2023-07-31T07:01:31;20.40;74.80
7666;DHT22;3875;46.562;4.898;2023-07-31T07:03:57;20.20;75.40
7666;DHT22;3875;46.562;4.898;2023-07-31T07:06:23;20.10;75.10
7666;DHT22;3875;46.562;4.898;2023-07-31T07:08:48;19.80;76.50
7666;DHT22;3875;46.562;4.898;2023-07-31T07:11:14;19.60;76.70
7666;DHT22;3875;46.562;4.898;2023-07-31T07:13:40;19.40;77.00
7666;DHT22;3875;46.562;4.898;2023-07-31T07:16:05;19.20;77.40
7666;DHT22;3875;46.562;4.898;2023-07-31T07:18:31;19.30;77.90
7666;DHT22;3875;46.562;4.898;2023-07-31T07:20:57;19.40;77.80
7666;DHT22;3875;46.562;4.898;2023-07-31T07:23:24;19.50;77.70
7666;DHT22;3875;46.562;4.898;2023-07-31T07:25:50;19.50;77.50
7666;DHT22;3875;46.562;4.898;2023-07-31T07:28:16;19.60;77.40
7666;DHT22;3875;46.562;4.898;2023-07-31T07:30:42;19.70;77.00
7666;DHT22;3875;46.562;4.898;2023-07-31T07:33:08;19.70;77.40
7666;DHT22;3875;46.562;4.898;2023-07-31T07:35:34;19.80;77.30
7666;DHT22;3875;46.562;4.898;2023-07-31T07:38:01;19.90;77.00
7666;DHT22;3875;46.562;4.898;2023-07-31T07:40:27;19.80;76.90
7666;DHT22;3875;46.562;4.898;2023-07-31T07:42:53;19.80;77.20
7666;DHT22;3875;46.562;4.898;2023-07-31T07:45:18;19.90;77.40
7666;DHT22;3875;46.562;4.898;2023-07-31T07:47:44;20.20;77.50
7666;DHT22;3875;46.562;4.898;2023-07-31T07:50:10;20.50;76.70
7666;DHT22;3875;46.562;4.898;2023-07-31T07:52:35;20.60;75.70
7666;DHT22;3875;46.562;4.898;2023-07-31T07:55:01;20.80;75.90
7666;DHT22;3875;46.562;4.898;2023-07-31T07:57:28;20.70;75.20
7666;DHT22;3875;46.562;4.898;2023-07-31T07:59:54;20.70;75.00
7666;DHT22;3875;46.562;4.898;2023-07-31T08:02:19;20.70;75.30
7666;DHT22;3875;46.562;4.898;2023-07-31T08:04:45;21.00;75.60
7666;DHT22;3875;46.562;4.898;2023-07-31T08:07:11;21.40;75.00
7666;DHT22;3875;46.562;4.898;2023-07-31T08:09:38;21.80;73.40
7666;DHT22;3875;46.562;4.898;2023-07-31T08:12:04;21.90;72.90
7666;DHT22;3875;46.562;4.898;2023-07-31T08:14:30;22.20;72.80
7666;DHT22;3875;46.562;4.898;2023-07-31T08:16:56;22.50;71.60
7666;DHT22;3875;46.562;4.898;2023-07-31T08:19:21;22.40;71.70
7666;DHT22;3875;46.562;4.898;2023-07-31T08:21:47;22.50;71.70
7666;DHT22;3875;46.562;4.898;2023-07-31T08:24:12;22.30;70.80
7666;DHT22;3875;46.562;4.898;2023-07-31T08:26:38;22.60;72.40
7666;DHT22;3875;46.562;4.898;2023-07-31T08:29:04;23.00;70.90
7666;DHT22;3875;46.562;4.898;2023-07-31T08:31:29;23.50;70.90
7666;DHT22;3875;46.562;4.898;2023-07-31T08:33:56;24.00;69.60
7666;DHT22;3875;46.562;4.898;2023-07-31T08:36:22;24.60;68.30
7666;DHT22;3875;46.562;4.898;2023-07-31T08:38:47;24.90;67.30
7666;DHT22;3875;46.562;4.898;2023-07-31T08:41:13;24.60;66.80
7666;DHT22;3875;46.562;4.898;2023-07-31T08:43:39;24.20;67.10
7666;DHT22;3875;46.562;4.898;2023-07-31T08:46:05;24.10;67.90
7666;DHT22;3875;46.562;4.898;2023-07-31T08:48:32;23.80;67.80
7666;DHT22;3875;46.562;4.898;2023-07-31T08:50:58;23.70;68.40
7666;DHT22;3875;46.562;4.898;2023-07-31T08:53:24;23.80;68.50
7666;DHT22;3875;46.562;4.898;2023-07-31T08:55:52;23.80;68.50
7666;DHT22;3875;46.562;4.898;2023-07-31T08:58:19;24.00;68.00
7666;DHT22;3875;46.562;4.898;2023-07-31T09:00:46;24.30;67.10
7666;DHT22;3875;46.562;4.898;2023-07-31T09:03:17;24.40;67.50
7666;DHT22;3875;46.562;4.898;2023-07-31T09:05:46;22.30;70.80
7666;DHT22;3875;46.562;4.898;2023-07-31T09:08:13;21.70;73.30
7666;DHT22;3875;46.562;4.898;2023-07-31T09:10:42;21.40;74.20
7666;DHT22;3875;46.562;4.898;2023-07-31T09:13:09;21.20;74.20
7666;DHT22;3875;46.562;4.898;2023-07-31T09:15:36;21.00;74.60
7666;DHT22;3875;46.562;4.898;2023-07-31T09:18:03;21.00;74.40
7666;DHT22;3875;46.562;4.898;2023-07-31T09:20:29;21.80;73.10
7666;DHT22;3875;46.562;4.898;2023-07-31T09:22:55;22.10;73.30
7666;DHT22;3875;46.562;4.898;2023-07-31T09:25:23;22.50;72.80
7666;DHT22;3875;46.562;4.898;2023-07-31T09:27:50;22.50;70.80
7666;DHT22;3875;46.562;4.898;2023-07-31T09:30:17;23.00;70.40
7666;DHT22;3875;46.562;4.898;2023-07-31T09:32:44;23.10;69.80
7666;DHT22;3875;46.562;4.898;2023-07-31T09:35:27;22.90;70.10
7666;DHT22;3875;46.562;4.898;2023-07-31T09:37:55;23.50;70.10
7666;DHT22;3875;46.562;4.898;2023-07-31T09:40:30;23.60;67.40
7666;DHT22;3875;46.562;4.898;2023-07-31T09:43:00;23.70;68.10
7666;DHT22;3875;46.562;4.898;2023-07-31T09:45:26;24.10;67.70
7666;DHT22;3875;46.562;4.898;2023-07-31T09:47:53;24.20;67.80
7666;DHT22;3875;46.562;4.898;2023-07-31T09:50:22;24.00;66.80
7666;DHT22;3875;46.562;4.898;2023-07-31T09:52:48;24.10;67.80
7666;DHT22;3875;46.562;4.898;2023-07-31T09:55:14;23.80;69.90
7666;DHT22;3875;46.562;4.898;2023-07-31T09:57:41;24.00;67.50
7666;DHT22;3875;46.562;4.898;2023-07-31T10:00:14;24.00;69.80
7666;DHT22;3875;46.562;4.898;2023-07-31T10:02:41;24.00;68.70
7666;DHT22;3875;46.562;4.898;2023-07-31T10:05:07;24.10;67.90
7666;DHT22;3875;46.562;4.898;2023-07-31T10:07:37;23.40;69.60
7666;DHT22;3875;46.562;4.898;2023-07-31T10:10:08;24.00;69.90
7666;DHT22;3875;46.562;4.898;2023-07-31T10:12:38;23.90;68.00
7666;DHT22;3875;46.562;4.898;2023-07-31T10:15:04;24.40;67.00
7666;DHT22;3875;46.562;4.898;2023-07-31T10:17:30;24.20;65.80
7666;DHT22;3875;46.562;4.898;2023-07-31T10:19:58;24.60;66.10
7666;DHT22;3875;46.562;4.898;2023-07-31T10:22:28;24.90;65.80
7666;DHT22;3875;46.562;4.898;2023-07-31T10:24:55;24.80;66.50
7666;DHT22;3875;46.562;4.898;2023-07-31T10:27:22;24.40;65.90
7666;DHT22;3875;46.562;4.898;2023-07-31T10:29:48;25.10;65.70
7666;DHT22;3875;46.562;4.898;2023-07-31T10:32:15;24.80;64.00
7666;DHT22;3875;46.562;4.898;2023-07-31T10:34:42;24.70;64.40
7666;DHT22;3875;46.562;4.898;2023-07-31T10:37:28;25.30;64.80
7666;DHT22;3875;46.562;4.898;2023-07-31T10:45:04;25.40;63.50
7666;DHT22;3875;46.562;4.898;2023-07-31T10:47:29;24.30;65.10
7666;DHT22;3875;46.562;4.898;2023-07-31T10:50:17;24.40;66.50
7666;DHT22;3875;46.562;4.898;2023-07-31T10:52:48;24.70;65.90
7666;DHT22;3875;46.562;4.898;2023-07-31T10:57:57;25.30;66.40
7666;DHT22;3875;46.562;4.898;2023-07-31T11:00:29;24.80;65.80
7666;DHT22;3875;46.562;4.898;2023-07-31T11:03:01;25.70;65.60
7666;DHT22;3875;46.562;4.898;2023-07-31T11:05:50;26.20;63.40
7666;DHT22;3875;46.562;4.898;2023-07-31T11:08:24;26.00;65.50
7666;DHT22;3875;46.562;4.898;2023-07-31T11:11:04;26.30;62.80
7666;DHT22;3875;46.562;4.898;2023-07-31T11:13:44;26.70;63.70
7666;DHT22;3875;46.562;4.898;2023-07-31T11:16:11;26.80;62.80
7666;DHT22;3875;46.562;4.898;2023-07-31T11:18:42;26.80;62.60
7666;DHT22;3875;46.562;4.898;2023-07-31T11:21:15;26.50;62.60
7666;DHT22;3875;46.562;4.898;2023-07-31T11:23:45;26.60;63.70
7666;DHT22;3875;46.562;4.898;2023-07-31T11:26:12;26.50;63.10
7666;DHT22;3875;46.562;4.898;2023-07-31T11:28:38;27.10;61.30
7666;DHT22;3875;46.562;4.898;2023-07-31T11:31:04;27.00;60.30
7666;DHT22;3875;46.562;4.898;2023-07-31T11:33:30;27.10;62.20
7666;DHT22;3875;46.562;4.898;2023-07-31T11:35:56;27.40;61.70
7666;DHT22;3875;46.562;4.898;2023-07-31T11:38:29;27.00;60.20
7666;DHT22;3875;46.562;4.898;2023-07-31T11:40:57;27.20;59.90
7666;DHT22;3875;46.562;4.898;2023-07-31T11:43:24;26.90;60.40
7666;DHT22;3875;46.562;4.898;2023-07-31T11:45:52;26.90;61.60
7666;DHT22;3875;46.562;4.898;2023-07-31T11:48:29;27.00;61.50
7666;DHT22;3875;46.562;4.898;2023-07-31T11:50:58;27.30;60.70
7666;DHT22;3875;46.562;4.898;2023-07-31T11:53:51;27.50;58.70
7666;DHT22;3875;46.562;4.898;2023-07-31T11:56:17;27.80;59.70
7666;DHT22;3875;46.562;4.898;2023-07-31T11:58:46;27.80;60.70
7666;DHT22;3875;46.562;4.898;2023-07-31T12:01:14;27.10;60.10
7666;DHT22;3875;46.562;4.898;2023-07-31T12:03:40;27.20;60.20
7666;DHT22;3875;46.562;4.898;2023-07-31T12:06:08;27.30;59.60
7666;DHT22;3875;46.562;4.898;2023-07-31T12:08:34;27.20;61.80
7666;DHT22;3875;46.562;4.898;2023-07-31T12:11:04;27.30;61.50
7666;DHT22;3875;46.562;4.898;2023-07-31T12:13:31;27.30;59.20
7666;DHT22;3875;46.562;4.898;2023-07-31T12:15:58;27.10;65.00
7666;DHT22;3875;46.562;4.898;2023-07-31T12:23:22;32.50;51.80
7666;DHT22;3875;46.562;4.898;2023-07-31T12:31:09;32.60;51.00
7666;DHT22;3875;46.562;4.898;2023-07-31T12:33:37;32.70;50.20
7666;DHT22;3875;46.562;4.898;2023-07-31T12:36:09;32.70;50.00
7666;DHT22;3875;46.562;4.898;2023-07-31T12:38:35;32.60;50.40
7666;DHT22;3875;46.562;4.898;2023-07-31T12:41:01;32.50;50.30
7666;DHT22;3875;46.562;4.898;2023-07-31T12:43:27;32.40;49.90
7666;DHT22;3875;46.562;4.898;2023-07-31T12:45:54;32.50;50.20
7666;DHT22;3875;46.562;4.898;2023-07-31T12:48:20;32.30;49.80
7666;DHT22;3875;46.562;4.898;2023-07-31T12:50:45;32.40;51.20
7666;DHT22;3875;46.562;4.898;2023-07-31T12:53:11;32.60;50.60
7666;DHT22;3875;46.562;4.898;2023-07-31T12:55:37;32.70;49.60
7666;DHT22;3875;46.562;4.898;2023-07-31T12:58:03;32.70;49.50
7666;DHT22;3875;46.562;4.898;2023-07-31T13:00:29;32.50;49.40
7666;DHT22;3875;46.562;4.898;2023-07-31T13:02:55;32.30;49.70
7666;DHT22;3875;46.562;4.898;2023-07-31T13:05:20;32.50;50.40
7666;DHT22;3875;46.562;4.898;2023-07-31T13:07:47;32.80;50.00
7666;DHT22;3875;46.562;4.898;2023-07-31T13:10:13;32.90;49.20
7666;DHT22;3875;46.562;4.898;2023-07-31T13:12:38;33.00;50.20
7666;DHT22;3875;46.562;4.898;2023-07-31T13:15:05;33.20;49.10
7666;DHT22;3875;46.562;4.898;2023-07-31T13:17:31;33.50;48.70
7666;DHT22;3875;46.562;4.898;2023-07-31T13:19:57;33.50;49.10
7666;DHT22;3875;46.562;4.898;2023-07-31T13:22:22;33.40;48.80
7666;DHT22;3875;46.562;4.898;2023-07-31T13:24:48;33.20;49.20
7666;DHT22;3875;46.562;4.898;2023-07-31T13:27:14;33.40;49.40
7666;DHT22;3875;46.562;4.898;2023-07-31T13:29:45;33.30;48.40
7666;DHT22;3875;46.562;4.898;2023-07-31T13:32:11;33.40;49.30
7666;DHT22;3875;46.562;4.898;2023-07-31T13:34:37;33.50;49.30
7666;DHT22;3875;46.562;4.898;2023-07-31T13:37:02;33.70;49.60
7666;DHT22;3875;46.562;4.898;2023-07-31T13:39:28;33.70;48.00
7666;DHT22;3875;46.562;4.898;2023-07-31T13:41:54;33.70;49.40
7666;DHT22;3875;46.562;4.898;2023-07-31T13:44:20;33.80;47.60
7666;DHT22;3875;46.562;4.898;2023-07-31T13:46:46;33.90;48.40
7666;DHT22;3875;46.562;4.898;2023-07-31T13:49:11;34.00;49.00
7666;DHT22;3875;46.562;4.898;2023-07-31T13:51:37;34.20;49.00
7666;DHT22;3875;46.562;4.898;2023-07-31T13:54:04;34.20;48.60
7666;DHT22;3875;46.562;4.898;2023-07-31T13:56:31;34.30;48.50
7666;DHT22;3875;46.562;4.898;2023-07-31T13:58:57;34.10;48.60
7666;DHT22;3875;46.562;4.898;2023-07-31T14:01:22;34.00;48.10
7666;DHT22;3875;46.562;4.898;2023-07-31T14:03:48;33.90;48.10
7666;DHT22;3875;46.562;4.898;2023-07-31T14:06:14;33.80;47.00
7666;DHT22;3875;46.562;4.898;2023-07-31T14:08:39;33.70;46.80
7666;DHT22;3875;46.562;4.898;2023-07-31T14:11:05;33.90;47.80
7666;DHT22;3875;46.562;4.898;2023-07-31T14:13:31;34.20;47.90
7666;DHT22;3875;46.562;4.898;2023-07-31T14:15:56;34.20;47.10
7666;DHT22;3875;46.562;4.898;2023-07-31T14:18:22;34.10;46.60
7666;DHT22;3875;46.562;4.898;2023-07-31T14:20:47;33.90;47.10
7666;DHT22;3875;46.562;4.898;2023-07-31T14:23:13;34.00;47.40
7666;DHT22;3875;46.562;4.898;2023-07-31T14:25:39;34.00;46.30
7666;DHT22;3875;46.562;4.898;2023-07-31T14:28:05;34.10;48.10
7666;DHT22;3875;46.562;4.898;2023-07-31T14:30:30;34.00;47.10
7666;DHT22;3875;46.562;4.898;2023-07-31T14:32:56;34.00;47.20
7666;DHT22;3875;46.562;4.898;2023-07-31T14:35:21;34.10;47.90
7666;DHT22;3875;46.562;4.898;2023-07-31T14:37:47;34.40;46.00
7666;DHT22;3875;46.562;4.898;2023-07-31T14:40:13;34.10;45.50
7666;DHT22;3875;46.562;4.898;2023-07-31T14:42:39;33.70;46.90
7666;DHT22;3875;46.562;4.898;2023-07-31T14:45:06;33.70;47.60
7666;DHT22;3875;46.562;4.898;2023-07-31T14:47:32;34.10;48.00
7666;DHT22;3875;46.562;4.898;2023-07-31T14:49:59;34.20;47.30
7666;DHT22;3875;46.562;4.898;2023-07-31T14:52:25;34.20;46.90
7666;DHT22;3875;46.562;4.898;2023-07-31T14:54:50;33.70;46.80
7666;DHT22;3875;46.562;4.898;2023-07-31T14:57:16;33.30;47.90
7666;DHT22;3875;46.562;4.898;2023-07-31T14:59:42;33.20;48.00
7666;DHT22;3875;46.562;4.898;2023-07-31T15:02:09;33.00;47.10
7666;DHT22;3875;46.562;4.898;2023-07-31T15:04:35;32.80;48.20
7666;DHT22;3875;46.562;4.898;2023-07-31T15:07:01;32.50;48.50
7666;DHT22;3875;46.562;4.898;2023-07-31T15:09:27;32.20;48.70
7666;DHT22;3875;46.562;4.898;2023-07-31T15:11:53;31.90;49.10
7666;DHT22;3875;46.562;4.898;2023-07-31T15:14:19;31.60;49.60
7666;DHT22;3875;46.562;4.898;2023-07-31T15:16:44;31.70;49.90
7666;DHT22;3875;46.562;4.898;2023-07-31T15:19:10;31.90;50.00
7666;DHT22;3875;46.562;4.898;2023-07-31T15:21:39;31.90;48.60
7666;DHT22;3875;46.562;4.898;2023-07-31T15:24:04;32.00;49.00
7666;DHT22;3875;46.562;4.898;2023-07-31T15:26:30;32.10;49.80
7666;DHT22;3875;46.562;4.898;2023-07-31T15:29:05;32.10;49.00
7666;DHT22;3875;46.562;4.898;2023-07-31T15:31:41;32.10;49.30
7666;DHT22;3875;46.562;4.898;2023-07-31T15:34:07;31.90;49.40
7666;DHT22;3875;46.562;4.898;2023-07-31T15:36:33;31.50;50.00
7666;DHT22;3875;46.562;4.898;2023-07-31T15:38:59;31.30;49.90
7666;DHT22;3875;46.562;4.898;2023-07-31T15:41:24;31.30;50.50
7666;DHT22;3875;46.562;4.898;2023-07-31T15:43:51;31.20;50.20
7666;DHT22;3875;46.562;4.898;2023-07-31T15:46:17;31.30;51.00
7666;DHT22;3875;46.562;4.898;2023-07-31T15:48:44;31.40;51.50
7666;DHT22;3875;46.562;4.898;2023-07-31T15:51:09;31.50;52.00
7666;DHT22;3875;46.562;4.898;2023-07-31T15:53:35;31.50;51.10
7666;DHT22;3875;46.562;4.898;2023-07-31T15:58:27;31.50;51.80
7666;DHT22;3875;46.562;4.898;2023-07-31T16:00:53;31.60;51.60
7666;DHT22;3875;46.562;4.898;2023-07-31T16:03:19;31.60;52.00
7666;DHT22;3875;46.562;4.898;2023-07-31T16:05:47;31.70;51.90
7666;DHT22;3875;46.562;4.898;2023-07-31T16:08:12;31.70;52.40
7666;DHT22;3875;46.562;4.898;2023-07-31T16:10:38;31.60;52.80
7666;DHT22;3875;46.562;4.898;2023-07-31T16:13:04;31.60;52.30
7666;DHT22;3875;46.562;4.898;2023-07-31T16:15:29;31.40;51.30
7666;DHT22;3875;46.562;4.898;2023-07-31T16:17:55;31.30;52.30
7666;DHT22;3875;46.562;4.898;2023-07-31T16:20:21;31.20;51.70
7666;DHT22;3875;46.562;4.898;2023-07-31T16:22:46;31.10;51.90
7666;DHT22;3875;46.562;4.898;2023-07-31T16:25:12;31.00;52.50
7666;DHT22;3875;46.562;4.898;2023-07-31T16:27:38;31.00;52.80